createdAt,value
2022-11-19T00:01:10.618Z,1.57
2022-11-19T00:03:38.896Z,1.94
2022-11-19T00:06:12.324Z,1.77
2022-11-19T00:08:39.920Z,1.98
2022-11-19T00:11:41.182Z,1.61
2022-11-19T00:14:09.549Z,1.65
2022-11-19T00:16:36.568Z,1.83
2022-11-19T00:19:04.027Z,1.53
2022-11-19T00:21:30.761Z,1.56
2022-11-19T00:23:57.788Z,1.74
2022-11-19T00:26:24.529Z,1.63
2022-11-19T00:28:51.220Z,1.68
2022-11-19T00:31:18.563Z,1.66
2022-11-19T00:33:45.830Z,1.97
2022-11-19T00:36:15.400Z,1.62
2022-11-19T00:38:42.522Z,1.68
2022-11-19T00:41:09.493Z,1.72
2022-11-19T00:43:49.401Z,1.85
2022-11-19T00:46:20.514Z,1.88
2022-11-19T00:48:49.034Z,1.66
2022-11-19T00:51:17.218Z,1.70
2022-11-19T00:53:44.152Z,1.69
2022-11-19T00:56:13.980Z,1.65
2022-11-19T00:58:41.697Z,1.81
2022-11-19T01:01:09.741Z,1.91
2022-11-19T01:03:37.127Z,1.91
2022-11-19T01:06:04.148Z,1.79
2022-11-19T01:08:30.833Z,2.15
2022-11-19T01:11:05.409Z,2.07
2022-11-19T01:13:34.850Z,2.02
2022-11-19T01:16:08.097Z,2.37
2022-11-19T01:18:36.332Z,2.19
2022-11-19T01:21:05.401Z,1.96
2022-11-19T01:23:33.384Z,1.95
2022-11-19T01:26:00.823Z,1.92
2022-11-19T01:28:28.035Z,1.92
2022-11-19T01:30:54.721Z,1.93
2022-11-19T01:33:22.580Z,2.15
2022-11-19T01:36:00.237Z,2.10
2022-11-19T01:38:28.155Z,1.83
2022-11-19T01:40:55.880Z,1.91
2022-11-19T01:43:43.443Z,1.78
2022-11-19T01:46:12.751Z,1.68
2022-11-19T01:48:44.772Z,2.04
2022-11-19T01:51:14.429Z,1.85
2022-11-19T01:53:41.140Z,2.22
2022-11-19T01:56:09.159Z,2.24
2022-11-19T01:58:39.770Z,1.97
2022-11-19T02:01:08.092Z,2.13
2022-11-19T02:03:36.489Z,2.33
2022-11-19T03:24:58.949Z,1.46
2022-11-19T03:28:19.587Z,1.20
2022-11-19T03:31:14.040Z,1.59
2022-11-19T03:40:19.590Z,1.75
2022-11-19T03:45:49.913Z,1.35
2022-11-19T03:48:20.390Z,1.56
2022-11-19T03:50:49.845Z,1.63
2022-11-19T03:53:17.957Z,1.28
2022-11-19T03:55:51.442Z,1.28
2022-11-19T03:58:18.081Z,1.12
2022-11-19T04:00:44.808Z,1.14
2022-11-19T04:03:11.396Z,1.24
2022-11-19T04:05:37.992Z,1.29
2022-11-19T04:08:04.877Z,1.26
2022-11-19T04:10:31.619Z,1.04
2022-11-19T04:12:58.139Z,1.22
2022-11-19T04:15:24.983Z,1.02
2022-11-19T04:17:51.687Z,1.08
2022-11-19T04:20:18.394Z,0.88
2022-11-19T04:22:45.076Z,0.85
2022-11-19T04:25:11.807Z,1.08
2022-11-19T04:27:38.363Z,0.96
2022-11-19T04:30:05.455Z,0.82
2022-11-19T04:32:32.041Z,0.88
2022-11-19T04:34:58.713Z,0.53
2022-11-19T04:37:25.315Z,0.89
2022-11-19T04:39:52.062Z,0.71
2022-11-19T04:42:18.728Z,0.55
2022-11-19T04:44:45.416Z,0.58
2022-11-19T04:47:12.228Z,0.48
2022-11-19T04:49:38.839Z,0.48
2022-11-19T04:52:05.580Z,0.69
2022-11-19T04:54:32.397Z,0.75
2022-11-19T04:56:59.139Z,0.44
2022-11-19T04:59:25.798Z,0.44
2022-11-19T05:01:52.748Z,0.65
2022-11-19T05:04:19.653Z,0.74
2022-11-19T05:06:46.239Z,0.39
2022-11-19T05:09:12.813Z,0.20
2022-11-19T05:11:39.415Z,0.23
2022-11-19T05:14:05.988Z,0.37
2022-11-19T05:16:32.532Z,0.38
2022-11-19T05:18:59.131Z,0.39
2022-11-19T05:21:25.831Z,0.34
2022-11-19T05:23:52.388Z,0.23
2022-11-19T05:26:19.045Z,0.10
2022-11-19T05:28:46.232Z,0.16
2022-11-19T05:31:12.825Z,0.45
2022-11-19T05:33:39.421Z,0.31
2022-11-19T05:36:06.535Z,0.17
2022-11-19T05:38:33.148Z,0.04
2022-11-19T05:40:59.723Z,0.14
2022-11-19T05:43:27.080Z,-0.13
2022-11-19T05:45:53.732Z,0.04
2022-11-19T05:48:20.322Z,-0.16
2022-11-19T05:50:46.903Z,0.04
2022-11-19T05:53:13.473Z,-0.03
2022-11-19T05:55:40.144Z,0.00
2022-11-19T05:58:06.713Z,0.04
2022-11-19T06:00:33.358Z,-0.11
2022-11-19T06:02:59.998Z,0.01
2022-11-19T06:05:26.855Z,0.06
2022-11-19T06:07:53.366Z,0.08
2022-11-19T06:10:20.000Z,-0.17
2022-11-19T06:12:46.671Z,0.19
2022-11-19T06:15:14.257Z,-0.38
2022-11-19T06:17:41.100Z,-0.02
2022-11-19T06:20:10.971Z,0.03
2022-11-19T06:22:38.593Z,-0.39
2022-11-19T06:25:05.975Z,-0.14
2022-11-19T06:27:32.615Z,-0.38
2022-11-19T06:29:59.248Z,-0.41
2022-11-19T06:32:25.931Z,-0.44
2022-11-19T06:34:52.485Z,-0.45
2022-11-19T06:37:19.047Z,-0.24
2022-11-19T06:39:45.604Z,-0.08
2022-11-19T06:42:30.671Z,-0.39
2022-11-19T06:44:57.276Z,-0.38
2022-11-19T06:47:23.851Z,-0.55
2022-11-19T06:49:50.488Z,-0.38
2022-11-19T06:52:17.240Z,-0.24
2022-11-19T06:54:43.982Z,-0.25
2022-11-19T06:57:10.638Z,-0.50
2022-11-19T06:59:39.043Z,-0.57
2022-11-19T07:02:06.454Z,-0.55
2022-11-19T07:04:34.580Z,-0.33
2022-11-19T07:07:01.817Z,-0.50
2022-11-19T07:09:30.811Z,-0.39
2022-11-19T07:11:57.607Z,-0.56
2022-11-19T07:14:24.237Z,-0.48
2022-11-19T07:16:50.892Z,-0.44
2022-11-19T07:19:17.827Z,-0.70
2022-11-19T07:21:44.771Z,-0.61
2022-11-19T07:24:11.519Z,-0.59
2022-11-19T07:26:38.266Z,-0.75
2022-11-19T07:29:07.632Z,-0.71
2022-11-19T07:31:34.603Z,-0.95
2022-11-19T07:34:01.294Z,-0.75
2022-11-19T07:36:28.067Z,-0.71
2022-11-19T07:38:54.685Z,-0.61
2022-11-19T07:41:39.983Z,-0.61
2022-11-19T07:44:06.790Z,-0.53
2022-11-19T07:46:33.362Z,-0.61
2022-11-19T07:49:00.377Z,-0.69
2022-11-19T07:51:27.596Z,-0.43
2022-11-19T07:53:55.682Z,-0.53
2022-11-19T07:56:23.005Z,-0.49
2022-11-19T07:58:49.893Z,-0.60
2022-11-19T08:01:19.597Z,-0.56
2022-11-19T08:03:52.048Z,-0.42
2022-11-19T08:06:24.007Z,-0.61
2022-11-19T08:08:50.710Z,-0.86
2022-11-19T08:11:17.993Z,-0.78
2022-11-19T08:13:44.644Z,-0.47
2022-11-19T08:16:13.542Z,-0.80
2022-11-19T08:18:40.192Z,-0.67
2022-11-19T08:21:09.996Z,-0.68
2022-11-19T08:23:38.599Z,-0.65
2022-11-19T08:26:08.855Z,-0.47
2022-11-19T08:28:35.371Z,-0.45
2022-11-19T08:31:06.857Z,-0.58
2022-11-19T08:33:34.033Z,-0.53
2022-11-19T08:36:00.767Z,-0.35
2022-11-19T08:38:27.470Z,-0.33
2022-11-19T08:41:14.825Z,-0.15
2022-11-19T08:43:41.978Z,-0.08
2022-11-19T08:46:09.347Z,0.09
2022-11-19T08:48:36.161Z,-0.18
2022-11-19T08:51:07.824Z,-0.05
2022-11-19T08:53:34.488Z,-0.17
2022-11-19T08:56:01.332Z,-0.34
2022-11-19T08:58:28.015Z,-0.19
2022-11-19T09:00:55.410Z,0.22
2022-11-19T09:03:21.989Z,0.16
2022-11-19T09:05:48.661Z,0.10
2022-11-19T09:08:15.229Z,0.44
2022-11-19T09:10:41.851Z,0.47
2022-11-19T09:13:08.507Z,0.60
2022-11-19T09:15:35.728Z,0.31
2022-11-19T09:18:02.329Z,0.31
2022-11-19T09:20:28.879Z,0.51
2022-11-19T09:22:55.453Z,0.49
2022-11-19T09:25:22.051Z,0.65
2022-11-19T09:27:48.644Z,0.82
2022-11-19T09:30:15.275Z,0.84
2022-11-19T09:32:41.883Z,0.98
2022-11-19T09:35:08.640Z,1.01
2022-11-19T09:37:36.250Z,0.53
2022-11-19T09:40:04.681Z,0.86
2022-11-19T09:42:31.229Z,0.71
2022-11-19T09:45:10.008Z,0.76
2022-11-19T09:47:48.682Z,0.60
2022-11-19T09:50:15.273Z,0.80
2022-11-19T09:52:50.869Z,1.17
2022-11-19T09:55:29.363Z,1.19
2022-11-19T09:57:58.037Z,1.00
2022-11-19T10:00:31.139Z,0.71
2022-11-19T10:03:01.259Z,0.89
2022-11-19T10:05:36.870Z,1.29
2022-11-19T10:08:12.357Z,0.87
2022-11-19T10:11:03.589Z,1.21
2022-11-19T10:13:47.374Z,0.97
2022-11-19T10:16:33.564Z,1.45
2022-11-19T10:19:21.611Z,1.31
2022-11-19T10:22:07.037Z,1.29
2022-11-19T10:24:49.158Z,1.48
2022-11-19T10:27:36.236Z,1.62
2022-11-19T10:30:06.798Z,1.59
2022-11-19T10:32:41.008Z,2.14
2022-11-19T10:35:15.435Z,2.27
2022-11-19T10:37:58.357Z,1.96
2022-11-19T10:40:30.117Z,2.17
2022-11-19T10:43:25.939Z,1.99
2022-11-19T10:45:53.514Z,2.33
2022-11-19T10:48:39.946Z,2.09
2022-11-19T10:51:21.700Z,2.49
2022-11-19T10:53:49.513Z,2.54
2022-11-19T10:56:22.915Z,2.55
2022-11-19T10:58:57.429Z,2.82
2022-11-19T11:01:34.302Z,2.65
2022-11-19T11:04:19.507Z,2.44
2022-11-19T11:07:03.920Z,2.54
2022-11-19T11:09:42.805Z,2.69
2022-11-19T11:12:44.088Z,2.07
2022-11-19T11:15:26.861Z,2.72
2022-11-19T11:18:09.118Z,2.84
2022-11-19T11:20:37.737Z,2.53
2022-11-19T11:23:15.141Z,2.48
2022-11-19T11:26:03.835Z,2.77
2022-11-19T11:28:30.752Z,3.12
2022-11-19T11:31:06.364Z,3.34
2022-11-19T11:33:48.687Z,3.62
2022-11-19T11:36:19.705Z,3.66
2022-11-19T11:38:49.316Z,3.22
2022-11-19T11:44:19.903Z,3.07
2022-11-19T11:46:50.258Z,2.90
2022-11-19T11:49:26.261Z,2.94
2022-11-19T11:52:09.727Z,2.93
2022-11-19T11:54:43.454Z,2.74
2022-11-19T11:57:18.786Z,3.10
2022-11-19T11:59:51.618Z,3.11
2022-11-19T12:02:37.613Z,3.11
2022-11-19T12:05:13.506Z,3.26
2022-11-19T12:08:10.066Z,3.75
2022-11-19T12:11:23.777Z,3.21
2022-11-19T12:14:11.267Z,3.34
2022-11-19T12:17:02.782Z,3.16
2022-11-19T12:19:56.277Z,3.14
2022-11-19T12:22:42.707Z,3.03
2022-11-19T12:25:21.102Z,3.19
2022-11-19T12:28:00.861Z,3.26
2022-11-19T12:30:39.087Z,3.41
2022-11-19T12:33:26.995Z,2.75
2022-11-19T12:36:16.924Z,2.70
2022-11-19T12:38:53.886Z,3.28
2022-11-19T12:41:39.161Z,3.41
2022-11-19T12:44:23.985Z,3.39
2022-11-19T12:47:22.553Z,3.41
2022-11-19T12:50:04.598Z,3.51
2022-11-19T12:52:58.138Z,3.22
2022-11-19T12:55:27.873Z,3.32
2022-11-19T12:58:15.147Z,2.92
2022-11-19T13:00:52.387Z,3.05
2022-11-19T13:03:30.205Z,2.85
2022-11-19T13:05:59.693Z,2.89
2022-11-19T13:08:41.577Z,3.03
2022-11-19T13:11:32.207Z,2.95
2022-11-19T13:14:11.481Z,2.71
2022-11-19T13:16:42.187Z,2.62
2022-11-19T13:19:19.766Z,2.73
2022-11-19T13:21:54.178Z,2.75
2022-11-19T13:24:32.820Z,2.88
2022-11-19T13:27:06.707Z,2.64
2022-11-19T13:30:06.866Z,2.83
2022-11-19T13:32:43.802Z,2.79
2022-11-19T13:35:17.715Z,3.01
2022-11-19T13:37:59.314Z,3.18
2022-11-19T13:40:37.375Z,2.65
2022-11-19T13:43:38.516Z,2.83
2022-11-19T13:46:16.756Z,2.83
2022-11-19T13:49:19.551Z,3.11
2022-11-19T13:51:50.951Z,2.92
2022-11-19T13:54:34.327Z,3.02
2022-11-19T13:57:02.033Z,3.19
2022-11-19T13:59:39.414Z,3.17
2022-11-19T14:02:15.693Z,3.49
2022-11-19T14:05:02.193Z,3.25
2022-11-19T14:07:35.658Z,2.77
2022-11-19T14:10:41.384Z,3.37
2022-11-19T14:13:39.620Z,3.26
2022-11-19T14:16:37.381Z,3.51
2022-11-19T14:19:24.640Z,3.65
2022-11-19T14:22:13.408Z,3.42
2022-11-19T14:24:58.696Z,3.35
2022-11-19T14:27:26.514Z,3.15
2022-11-19T14:30:04.621Z,2.93
2022-11-19T14:32:47.729Z,2.81
2022-11-19T14:35:23.700Z,2.95
2022-11-19T14:37:56.812Z,3.00
2022-11-19T14:40:35.039Z,3.16
2022-11-19T14:43:21.365Z,3.34
2022-11-19T14:46:06.435Z,3.43
2022-11-19T14:48:47.184Z,2.86
2022-11-19T14:51:17.744Z,3.19
2022-11-19T14:54:00.984Z,3.19
2022-11-19T14:56:28.055Z,3.07
2022-11-19T14:59:02.453Z,3.10
2022-11-19T15:01:29.311Z,3.26
2022-11-19T15:04:00.971Z,2.59
2022-11-19T15:06:28.615Z,2.76
2022-11-19T15:09:01.934Z,2.82
2022-11-19T15:12:01.563Z,2.93
2022-11-19T15:14:34.357Z,3.26
2022-11-19T15:17:06.689Z,3.11
2022-11-19T15:20:00.121Z,2.87
2022-11-19T15:22:44.396Z,2.96
2022-11-19T15:25:44.522Z,2.93
2022-11-19T15:28:17.329Z,3.01
2022-11-19T15:31:11.160Z,3.14
2022-11-19T15:33:51.165Z,3.10
2022-11-19T15:36:52.371Z,3.04
2022-11-19T15:39:34.526Z,2.90
2022-11-19T15:42:06.636Z,2.69
2022-11-19T15:44:36.361Z,2.65
2022-11-19T15:47:13.766Z,2.49
2022-11-19T15:49:42.901Z,2.42
2022-11-19T15:52:26.482Z,2.41
2022-11-19T15:55:10.625Z,2.14
2022-11-19T15:57:43.085Z,2.15
2022-11-19T16:00:17.569Z,2.08
2022-11-19T16:02:46.802Z,2.02
2022-11-19T16:05:29.699Z,1.74
2022-11-19T16:07:59.847Z,1.63
2022-11-19T16:10:39.955Z,1.57
2022-11-19T16:13:51.492Z,1.72
2022-11-19T16:16:46.552Z,1.92
2022-11-19T16:19:15.401Z,1.69
2022-11-19T16:21:47.648Z,1.61
2022-11-19T16:24:36.422Z,1.46
2022-11-19T16:27:04.829Z,1.05
2022-11-19T16:29:36.156Z,1.26
2022-11-19T16:32:04.655Z,1.19
2022-11-19T16:34:36.840Z,1.32
2022-11-19T16:37:03.794Z,1.03
2022-11-19T16:39:32.232Z,0.99
2022-11-19T16:42:19.906Z,1.17
2022-11-19T16:44:54.798Z,0.86
2022-11-19T16:47:24.433Z,0.98
2022-11-19T16:49:51.181Z,1.10
2022-11-19T16:52:50.395Z,1.10
2022-11-19T16:55:20.016Z,1.04
2022-11-19T16:57:51.003Z,0.91
2022-11-19T17:00:23.618Z,0.66
2022-11-19T17:02:51.356Z,0.64
2022-11-19T17:05:24.707Z,0.55
2022-11-19T17:07:53.864Z,0.75
2022-11-19T17:10:31.193Z,0.74
2022-11-19T17:13:33.510Z,0.43
2022-11-19T17:16:18.270Z,0.56
2022-11-19T17:18:45.061Z,0.64
2022-11-19T17:21:30.258Z,0.58
2022-11-19T17:23:57.251Z,0.59
2022-11-19T17:26:27.496Z,0.53
2022-11-19T17:29:07.196Z,0.22
2022-11-19T17:31:33.870Z,0.47
2022-11-19T17:34:42.495Z,0.66
2022-11-19T17:37:09.451Z,0.48
2022-11-19T17:39:36.074Z,0.21
2022-11-19T17:42:22.332Z,0.33
2022-11-19T17:44:49.140Z,0.16
2022-11-19T17:47:24.484Z,0.29
2022-11-19T17:49:52.363Z,0.47
2022-11-19T17:52:30.423Z,0.51
2022-11-19T17:55:02.719Z,0.56
2022-11-19T17:57:29.334Z,0.62
2022-11-19T17:59:56.031Z,0.72
2022-11-19T18:02:22.859Z,0.69
2022-11-19T18:04:49.714Z,0.45
2022-11-19T18:07:16.437Z,0.30
2022-11-19T18:09:43.050Z,0.07
2022-11-19T18:12:15.974Z,0.15
2022-11-19T18:14:43.209Z,-0.14
2022-11-19T18:17:14.558Z,-0.01
2022-11-19T18:19:41.638Z,0.16
2022-11-19T18:22:17.216Z,0.25
2022-11-19T18:24:45.713Z,-0.53
2022-11-19T18:27:12.424Z,-0.69
2022-11-19T18:29:39.172Z,-0.80
2022-11-19T18:32:05.901Z,-0.75
2022-11-19T18:34:32.507Z,-0.65
2022-11-19T18:36:59.115Z,-0.37
2022-11-19T18:39:25.896Z,-0.43
2022-11-19T18:41:52.484Z,-0.39
2022-11-19T18:44:34.309Z,-0.21
2022-11-19T18:47:12.690Z,-0.23
2022-11-19T18:49:39.539Z,-0.25
2022-11-19T18:52:08.299Z,-0.21
2022-11-19T18:54:35.383Z,-0.07
2022-11-19T18:57:02.540Z,-0.02
2022-11-19T18:59:30.118Z,-0.18
2022-11-19T19:01:56.852Z,-0.21
2022-11-19T19:04:24.210Z,-0.37
2022-11-19T19:06:51.210Z,-0.27
2022-11-19T19:09:21.204Z,-0.10
2022-11-19T19:12:13.142Z,0.11
2022-11-19T19:14:40.338Z,0.14
2022-11-19T19:17:06.968Z,-0.04
2022-11-19T19:19:33.708Z,-0.04
2022-11-19T19:22:00.524Z,-0.11
2022-11-19T19:24:27.400Z,0.09
2022-11-19T19:26:54.087Z,0.33
2022-11-19T19:29:21.497Z,0.41
2022-11-19T19:31:48.478Z,0.31
2022-11-19T19:34:15.489Z,0.45
2022-11-19T19:36:47.671Z,0.43
2022-11-19T19:39:32.455Z,0.39
2022-11-19T19:41:59.039Z,0.27
2022-11-19T19:44:25.637Z,0.18
2022-11-19T19:46:52.286Z,0.30
2022-11-19T19:49:20.095Z,0.13
2022-11-19T19:51:47.420Z,0.14
2022-11-19T19:54:16.651Z,0.12
2022-11-19T19:56:46.099Z,0.05
2022-11-19T19:59:13.850Z,-0.10
2022-11-19T20:01:45.311Z,-0.05
2022-11-19T20:04:12.099Z,0.05
2022-11-19T20:06:46.187Z,-0.28
2022-11-19T20:09:13.432Z,-0.20
2022-11-19T20:11:40.128Z,-0.21
2022-11-19T20:14:07.507Z,-0.15
2022-11-19T20:16:34.999Z,-0.11
2022-11-19T20:19:02.061Z,-0.22
2022-11-19T20:21:33.723Z,-0.32
2022-11-19T20:24:00.404Z,-0.69
2022-11-19T20:26:29.544Z,-0.83
2022-11-19T20:28:56.855Z,-0.66
2022-11-19T20:31:24.304Z,-0.49
2022-11-19T20:33:55.234Z,-0.40
2022-11-19T20:36:24.474Z,-0.32
2022-11-19T20:38:51.812Z,-0.27
2022-11-19T20:41:37.785Z,-0.22
2022-11-19T20:44:22.132Z,-0.24
2022-11-19T20:47:07.324Z,-0.16
2022-11-19T20:49:38.143Z,-0.17
2022-11-19T20:52:06.336Z,-0.17
2022-11-19T20:54:33.779Z,-0.06
2022-11-19T20:57:00.843Z,-0.18
2022-11-19T20:59:28.425Z,-0.33
2022-11-19T21:01:57.062Z,-0.78
2022-11-19T21:04:25.447Z,-0.82
2022-11-19T21:06:54.028Z,-0.68
2022-11-19T21:09:21.913Z,-0.65
2022-11-19T21:11:49.977Z,-1.37
2022-11-19T21:14:16.649Z,-1.28
2022-11-19T21:16:45.899Z,-0.96
2022-11-19T21:19:12.780Z,-0.78
2022-11-19T21:21:39.461Z,-0.78
2022-11-19T21:24:07.101Z,-1.14
2022-11-19T21:26:34.220Z,-1.23
2022-11-19T21:29:00.924Z,-1.35
2022-11-19T21:31:41.395Z,-1.36
2022-11-19T21:34:10.411Z,-1.47
2022-11-19T21:36:37.959Z,-1.47
2022-11-19T21:39:06.028Z,-1.25
2022-11-19T21:41:34.293Z,-1.23
2022-11-19T21:44:04.447Z,-1.24
2022-11-19T21:46:31.416Z,-1.19
2022-11-19T21:48:58.160Z,-1.16
2022-11-19T21:51:25.445Z,-1.46
2022-11-19T21:53:58.833Z,-1.35
2022-11-19T21:56:26.897Z,-1.49
2022-11-19T21:58:53.649Z,-1.39
2022-11-19T22:01:20.645Z,-1.33
2022-11-19T22:03:47.761Z,-1.26
2022-11-19T22:06:14.885Z,-1.23
2022-11-19T22:08:42.895Z,-1.33
2022-11-19T22:11:28.838Z,-1.46
2022-11-19T22:13:59.559Z,-1.26
2022-11-19T22:16:27.126Z,-1.37
2022-11-19T22:18:54.036Z,-1.35
2022-11-19T22:21:20.844Z,-1.48
2022-11-19T22:23:47.806Z,-1.40
2022-11-19T22:26:15.542Z,-1.30
2022-11-19T22:28:42.474Z,-1.13
2022-11-19T22:31:09.510Z,-1.11
2022-11-19T22:33:38.744Z,-1.11
2022-11-19T22:36:10.202Z,-1.05
2022-11-19T22:38:38.708Z,-1.00
2022-11-19T22:41:10.331Z,-1.11
2022-11-19T22:43:38.119Z,-1.14
2022-11-19T22:46:05.503Z,-1.15
2022-11-19T22:48:33.218Z,-1.49
2022-11-19T22:51:05.261Z,-1.36
2022-11-19T22:53:34.418Z,-1.37
2022-11-19T22:56:03.181Z,-1.36
2022-11-19T22:58:29.910Z,-1.37
2022-11-19T23:00:57.155Z,-1.31
2022-11-19T23:03:23.971Z,-1.27
2022-11-19T23:05:52.049Z,-1.23
2022-11-19T23:08:18.698Z,-1.20
2022-11-19T23:10:45.778Z,-1.18
2022-11-19T23:13:33.297Z,-1.20
2022-11-19T23:16:13.629Z,-1.31
2022-11-19T23:18:42.108Z,-1.60
2022-11-19T23:21:12.081Z,-1.87
2022-11-19T23:23:39.241Z,-1.85
2022-11-19T23:26:08.064Z,-1.67
2022-11-19T23:28:36.193Z,-1.62
2022-11-19T23:31:08.981Z,-1.51
2022-11-19T23:33:35.981Z,-1.58
2022-11-19T23:36:05.061Z,-1.67
2022-11-19T23:38:31.961Z,-1.88
2022-11-19T23:41:02.860Z,-2.02
2022-11-19T23:43:29.774Z,-1.84
2022-11-19T23:46:04.752Z,-1.69
2022-11-19T23:48:32.621Z,-1.65
2022-11-19T23:51:04.152Z,-1.66
2022-11-19T23:53:30.998Z,-1.91
2022-11-19T23:55:57.886Z,-1.90
2022-11-19T23:58:24.675Z,-1.90
